Time;durP1;ratioP1;P1;durP2;ratioP2;P2;SDS_P1;SDS_P2;PMS_P1;PMS_P2;Temp;Humidity;BMP_temperature;BMP_pressure;BME280_temperature;BME280_humidity;BME280_pressure;Samples;Min_cycle;Max_cycle;Signal;HPM_P1;HPM_P2
2022/12/28 00:03:38;;;;;;;6.00;1.50;;;4.80;99.90;;;;;;12586533;28;20060;-83
2022/12/28 00:09:39;;;;;;;8.55;1.60;;;4.80;99.90;;;;;;12593227;28;20066;-83
2022/12/28 00:15:41;;;;;;;7.95;1.30;;;4.80;99.90;;;;;;12586651;28;20033;-82
2022/12/28 00:21:44;;;;;;;6.22;1.30;;;4.80;99.90;;;;;;12598735;28;20058;-83
2022/12/28 00:27:46;;;;;;;5.38;1.30;;;4.80;99.90;;;;;;12578832;28;20056;-83
2022/12/28 00:33:48;;;;;;;4.60;2.05;;;4.80;99.90;;;;;;12501216;28;20098;-83
2022/12/28 00:39:49;;;;;;;4.95;1.52;;;4.80;99.90;;;;;;12493027;28;20042;-83
2022/12/28 00:45:51;;;;;;;5.40;1.60;;;4.80;99.90;;;;;;12492352;28;20494;-83
2022/12/28 00:51:53;;;;;;;4.10;1.40;;;4.80;99.90;;;;;;12510742;28;20497;-82
2022/12/28 00:57:58;;;;;;;7.60;1.40;;;4.80;99.90;;;;;;12476928;28;20053;-83
2022/12/28 01:03:59;;;;;;;;;;;4.90;99.90;;;;;;12497816;28;20132;-83
2022/12/28 01:10:01;;;;;;;3.90;1.20;;;4.90;99.90;;;;;;12502272;28;20373;-83
2022/12/28 01:16:11;;;;;;;6.18;1.13;;;5.00;99.90;;;;;;12496620;28;20121;-83
2022/12/28 01:22:13;;;;;;;3.20;0.98;;;5.00;99.90;;;;;;12503395;28;20151;-83
2022/12/28 01:28:15;;;;;;;7.30;1.20;;;5.00;99.90;;;;;;12502533;28;20060;-83
2022/12/28 01:34:17;;;;;;;6.53;1.13;;;5.10;99.90;;;;;;12511125;28;20072;-83
2022/12/28 01:40:19;;;;;;;3.63;0.98;;;5.10;99.90;;;;;;12531961;28;20056;-83
2022/12/28 01:46:37;;;;;;;4.68;1.30;;;5.20;99.90;;;;;;12546493;28;20056;-83
2022/12/28 01:52:45;;;;;;;6.60;1.30;;;5.20;99.90;;;;;;12535999;28;20052;-83
2022/12/28 01:58:47;;;;;;;6.78;1.08;;;5.30;99.90;;;;;;12534375;28;20049;-82
2022/12/28 02:04:49;;;;;;;6.22;1.55;;;5.40;99.90;;;;;;12543559;28;20093;-83
2022/12/28 02:10:52;;;;;;;6.45;1.20;;;5.50;99.90;;;;;;12544593;28;20068;-83
2022/12/28 02:16:54;;;;;;;5.85;1.30;;;5.40;99.90;;;;;;12541929;28;20052;-84
2022/12/28 02:22:56;;;;;;;5.05;1.45;;;5.40;99.90;;;;;;12530902;28;20029;-83
2022/12/28 02:29:22;;;;;;;8.45;1.58;;;5.40;99.90;;;;;;12548704;28;20053;-83
2022/12/28 02:35:37;;;;;;;3.55;1.10;;;5.30;99.90;;;;;;12531823;28;20048;-83
2022/12/28 02:41:40;;;;;;;3.75;1.10;;;5.30;99.90;;;;;;12538129;28;20189;-83
2022/12/28 03:01:38;;;;;;;5.50;1.30;;;5.20;99.90;;;;;;12540838;28;20037;-84
2022/12/28 03:14:13;;;;;;;9.35;3.22;;;5.10;99.90;;;;;;12540979;28;20074;-84
2022/12/28 03:33:11;;;;;;;7.63;2.63;;;5.20;99.90;;;;;;12552385;28;20059;-84
2022/12/28 03:39:28;;;;;;;5.80;1.92;;;5.20;99.90;;;;;;12595245;28;20055;-83
2022/12/28 03:46:24;;;;;;;4.45;1.35;;;5.20;99.90;;;;;;12595651;28;20040;-83
2022/12/28 03:52:26;;;;;;;6.28;1.73;;;5.40;99.90;;;;;;12539442;28;20112;-83
2022/12/28 03:58:28;;;;;;;3.40;1.27;;;5.50;99.90;;;;;;12573176;28;20060;-83
2022/12/28 04:04:30;;;;;;;4.82;1.55;;;5.60;99.90;;;;;;12566169;28;20468;-83
2022/12/28 04:10:32;;;;;;;6.45;1.10;;;5.70;99.90;;;;;;12589651;28;20048;-83
2022/12/28 04:16:34;;;;;;;5.18;1.55;;;5.70;99.90;;;;;;12573866;28;20037;-83
2022/12/28 04:22:36;;;;;;;3.03;1.15;;;5.80;99.90;;;;;;12585914;28;20127;-83
2022/12/28 04:28:38;;;;;;;3.80;1.42;;;6.00;99.90;;;;;;12577943;28;20056;-83
2022/12/28 04:34:40;;;;;;;6.38;1.20;;;6.00;99.90;;;;;;12544029;28;20064;-83
2022/12/28 04:40:49;;;;;;;5.63;1.55;;;6.00;99.90;;;;;;12532816;28;20106;-84
2022/12/28 04:46:50;;;;;;;4.35;1.20;;;6.00;99.90;;;;;;12541160;28;20610;-83
2022/12/28 04:52:53;;;;;;;3.38;1.40;;;6.00;99.90;;;;;;12564291;28;20049;-84
2022/12/28 04:58:57;;;;;;;4.25;1.40;;;6.00;99.90;;;;;;12553596;28;20037;-83
2022/12/28 05:04:59;;;;;;;3.72;1.38;;;6.00;99.90;;;;;;12530369;28;20045;-83
2022/12/28 05:11:06;;;;;;;4.45;1.88;;;5.90;99.90;;;;;;12536245;28;20041;-83
2022/12/28 05:17:08;;;;;;;6.47;1.77;;;5.90;99.90;;;;;;12538842;28;20074;-83
2022/12/28 05:23:09;;;;;;;3.22;1.40;;;6.00;99.90;;;;;;12553213;28;20037;-83
2022/12/28 05:29:11;;;;;;;3.65;1.35;;;6.20;99.90;;;;;;12543397;28;20049;-84
2022/12/28 05:35:13;;;;;;;4.95;1.65;;;6.20;99.90;;;;;;12552789;28;20084;-84
2022/12/28 05:41:26;;;;;;;4.07;1.50;;;6.10;99.90;;;;;;12550056;28;20037;-85
2022/12/28 05:47:28;;;;;;;6.82;1.63;;;6.10;99.90;;;;;;12537318;28;20103;-84
2022/12/28 05:53:31;;;;;;;4.57;1.80;;;6.10;99.90;;;;;;12550114;28;20045;-84
2022/12/28 05:59:32;;;;;;;7.93;2.20;;;6.10;99.90;;;;;;12536266;28;20045;-84
2022/12/28 06:05:34;;;;;;;3.50;1.80;;;6.10;99.90;;;;;;12543039;28;20405;-84
2022/12/28 06:11:36;;;;;;;5.20;2.00;;;6.10;99.90;;;;;;12539211;28;20176;-84
2022/12/28 06:17:38;;;;;;;5.20;1.92;;;6.10;99.90;;;;;;12532689;28;20110;-84
2022/12/28 06:23:40;;;;;;;4.45;2.22;;;6.10;99.90;;;;;;12545985;28;20048;-83
2022/12/28 06:29:42;;;;;;;7.25;2.50;;;6.10;99.90;;;;;;12552562;28;20055;-83
2022/12/28 06:35:44;;;;;;;4.95;2.03;;;6.00;99.90;;;;;;12565470;28;20090;-84
2022/12/28 06:41:46;;;;;;;4.18;2.30;;;6.10;99.90;;;;;;12576839;28;20684;-83
2022/12/28 06:47:47;;;;;;;5.03;2.50;;;6.10;99.90;;;;;;12577336;28;20519;-84
2022/12/28 06:53:51;;;;;;;9.55;2.75;;;6.10;99.90;;;;;;12566071;28;20661;-83
2022/12/28 06:59:52;;;;;;;8.07;2.90;;;6.20;99.90;;;;;;12571012;28;20507;-84
2022/12/28 07:05:59;;;;;;;4.00;2.35;;;6.20;99.90;;;;;;12580628;28;20044;-84
2022/12/28 07:12:00;;;;;;;9.55;2.80;;;6.30;99.90;;;;;;12558746;28;20187;-84
2022/12/28 07:18:02;;;;;;;6.72;2.88;;;6.30;99.90;;;;;;12579875;28;20047;-84
2022/12/28 07:24:05;;;;;;;6.22;3.10;;;6.40;99.90;;;;;;12556868;28;20504;-84
2022/12/28 07:30:07;;;;;;;4.88;2.60;;;6.40;99.90;;;;;;12592421;28;20057;-83
2022/12/28 07:36:11;;;;;;;7.10;2.80;;;6.40;99.90;;;;;;12571458;28;20063;-84
2022/12/28 07:42:13;;;;;;;4.63;2.67;;;6.40;99.90;;;;;;12576316;28;20521;-85
2022/12/28 07:48:15;;;;;;;6.90;2.40;;;6.50;99.90;;;;;;12600531;28;20058;-84
2022/12/28 07:54:17;;;;;;;3.58;2.40;;;6.50;99.90;;;;;;12595093;28;20047;-84
2022/12/28 08:00:18;;;;;;;8.13;2.88;;;6.60;99.90;;;;;;12592902;28;20059;-84
2022/12/28 08:06:22;;;;;;;7.20;2.20;;;6.70;99.90;;;;;;12598019;28;20056;-84
2022/12/28 08:12:24;;;;;;;3.50;1.95;;;6.70;99.90;;;;;;12571022;28;20049;-84
2022/12/28 08:18:26;;;;;;;6.20;1.90;;;6.80;99.90;;;;;;12589357;28;20481;-84
2022/12/28 08:24:28;;;;;;;3.60;1.90;;;6.90;99.90;;;;;;12573460;28;20037;-84
2022/12/28 08:30:30;;;;;;;3.35;1.35;;;7.00;99.90;;;;;;12577889;28;20045;-84
2022/12/28 08:36:33;;;;;;;2.58;1.40;;;7.00;99.90;;;;;;12587025;28;20048;-84
2022/12/28 08:42:35;;;;;;;2.00;1.40;;;7.10;99.90;;;;;;12587441;28;20045;-85
2022/12/28 08:48:37;;;;;;;3.55;1.30;;;7.20;99.90;;;;;;12590349;28;20045;-84
2022/12/28 08:54:39;;;;;;;1.92;1.30;;;7.20;99.90;;;;;;12562799;28;20048;-84
2022/12/28 09:00:41;;;;;;;2.58;1.20;;;7.20;99.90;;;;;;12562214;28;20041;-84
2022/12/28 09:06:43;;;;;;;2.25;1.30;;;7.20;99.90;;;;;;12591160;28;20048;-85
2022/12/28 09:12:45;;;;;;;3.15;1.40;;;7.30;99.90;;;;;;12589218;28;20464;-85
2022/12/28 09:18:46;;;;;;;3.03;1.65;;;7.30;99.90;;;;;;12582101;28;20093;-84
2022/12/28 09:24:48;;;;;;;3.20;1.50;;;7.20;99.90;;;;;;12588081;28;20040;-84
2022/12/28 09:30:50;;;;;;;2.22;1.48;;;7.30;99.90;;;;;;12566471;28;20049;-84
2022/12/28 09:36:52;;;;;;;3.08;1.67;;;7.20;99.90;;;;;;12539998;28;20140;-84
2022/12/28 09:42:54;;;;;;;3.42;1.58;;;7.20;99.90;;;;;;12537001;28;20041;-85
2022/12/28 09:48:58;;;;;;;4.35;1.90;;;7.20;99.90;;;;;;12543348;28;20125;-84
2022/12/28 09:55:05;;;;;;;1.98;1.65;;;7.30;99.90;;;;;;12532166;28;20076;-84
2022/12/28 10:01:12;;;;;;;2.85;1.67;;;7.40;99.90;;;;;;12537098;28;20037;-85
2022/12/28 10:07:14;;;;;;;3.55;1.67;;;7.40;99.90;;;;;;12554369;28;20072;-84
2022/12/28 10:13:24;;;;;;;2.55;2.00;;;7.50;99.90;;;;;;12548984;28;20071;-84
2022/12/28 10:19:47;;;;;;;3.63;1.95;;;7.50;99.90;;;;;;12536831;28;20059;-84
2022/12/28 10:25:55;;;;;;;4.45;2.05;;;7.50;99.90;;;;;;12556571;28;20050;-84
2022/12/28 10:32:02;;;;;;;3.92;2.15;;;7.60;99.90;;;;;;12573206;28;20044;-84
2022/12/28 10:38:37;;;;;;;3.03;2.20;;;7.60;99.90;;;;;;12566655;28;20125;-85
2022/12/28 10:44:39;;;;;;;2.70;2.10;;;7.60;99.90;;;;;;12591410;28;20048;-85
2022/12/28 10:51:14;;;;;;;3.65;1.98;;;7.70;99.90;;;;;;12595808;28;20063;-85
2022/12/28 10:57:26;;;;;;;3.13;1.70;;;7.70;99.90;;;;;;12573377;28;20052;-85
2022/12/28 11:03:35;;;;;;;2.38;1.60;;;7.70;99.90;;;;;;12555864;28;20055;-86
2022/12/28 11:09:37;;;;;;;3.97;1.92;;;7.80;99.90;;;;;;12571849;28;20048;-85
2022/12/28 11:15:39;;;;;;;2.90;1.75;;;7.90;99.90;;;;;;12589584;28;20043;-85
2022/12/28 11:21:42;;;;;;;4.95;2.08;;;7.80;99.90;;;;;;12596536;28;20453;-84
2022/12/28 11:27:47;;;;;;;3.40;2.00;;;7.90;99.90;;;;;;12596491;28;20780;-84
2022/12/28 11:33:53;;;;;;;4.20;1.73;;;7.90;99.90;;;;;;12582198;28;20420;-85
2022/12/28 11:39:57;;;;;;;4.70;2.13;;;7.90;99.90;;;;;;12584633;28;20059;-84
2022/12/28 11:46:00;;;;;;;5.53;2.30;;;7.90;99.90;;;;;;12594386;28;20127;-84
2022/12/28 11:52:22;;;;;;;3.45;2.40;;;7.80;99.90;;;;;;12590998;28;20064;-85
2022/12/28 11:58:27;;;;;;;4.63;2.80;;;7.80;99.90;;;;;;12580521;28;20040;-84
2022/12/28 12:04:34;;;;;;;;;;;7.80;99.90;;;;;;12600132;28;20049;-84
2022/12/28 12:10:37;;;;;;;6.50;3.20;;;7.80;99.90;;;;;;12572467;28;19920;-84
2022/12/28 12:16:52;;;;;;;3.90;2.97;;;7.80;99.90;;;;;;12594840;28;20052;-84
2022/12/28 12:23:08;;;;;;;;;;;7.80;99.90;;;;;;12580957;28;20559;-85
2022/12/28 12:29:19;;;;;;;4.35;3.22;;;8.00;99.90;;;;;;12568047;28;19931;-84
2022/12/28 12:35:25;;;;;;;5.13;3.20;;;8.20;99.90;;;;;;12568816;28;20089;-85
2022/12/28 12:41:39;;;;;;;5.55;2.72;;;8.10;99.90;;;;;;12581054;28;20044;-84
2022/12/28 12:48:07;;;;;;;4.35;2.80;;;8.20;99.90;;;;;;12575947;28;20488;-84
2022/12/28 12:54:25;;;;;;;3.20;2.28;;;8.20;99.90;;;;;;12564510;28;20047;-85
2022/12/28 13:00:37;;;;;;;3.38;2.22;;;8.40;99.90;;;;;;12576643;28;20048;-85
2022/12/28 13:06:40;;;;;;;3.95;1.80;;;8.50;99.90;;;;;;12589367;28;20840;-85
2022/12/28 13:12:42;;;;;;;3.03;1.80;;;8.50;99.90;;;;;;12585936;28;20051;-85
2022/12/28 13:18:57;;;;;;;6.82;1.75;;;8.60;99.90;;;;;;12581826;28;20052;-85
2022/12/28 13:24:59;;;;;;;2.33;1.30;;;8.60;99.90;;;;;;12592393;28;20105;-84
2022/12/28 13:31:16;;;;;;;4.18;1.17;;;8.70;99.90;;;;;;12584117;28;20123;-84
2022/12/28 13:37:19;;;;;;;3.33;1.00;;;8.70;99.90;;;;;;12573063;28;20040;-85
2022/12/28 13:43:24;;;;;;;2.50;1.38;;;8.70;99.90;;;;;;12586160;28;20075;-85
2022/12/28 13:49:30;;;;;;;1.77;1.10;;;8.70;99.90;;;;;;12578417;28;20053;-85
2022/12/28 13:55:49;;;;;;;1.90;1.10;;;8.70;99.90;;;;;;12567618;28;20052;-86
2022/12/28 14:01:52;;;;;;;2.28;1.10;;;8.70;99.90;;;;;;12559327;28;20496;-85
2022/12/28 14:07:56;;;;;;;1.58;0.82;;;8.80;99.90;;;;;;12566667;28;20055;-85
2022/12/28 14:13:58;;;;;;;2.53;1.00;;;8.80;99.90;;;;;;12586607;28;20508;-85
2022/12/28 14:20:00;;;;;;;1.55;0.90;;;8.80;99.90;;;;;;12584911;28;20037;-86
2022/12/28 14:26:08;;;;;;;2.50;0.95;;;8.80;99.90;;;;;;12566934;28;20056;-86
2022/12/28 14:32:14;;;;;;;3.33;1.20;;;8.70;99.90;;;;;;12584387;28;20457;-85
2022/12/28 14:38:21;;;;;;;2.08;1.05;;;8.70;99.90;;;;;;12572764;28;20052;-86
2022/12/28 14:44:36;;;;;;;2.55;1.10;;;8.60;99.90;;;;;;12587320;28;20089;-86
2022/12/28 14:50:59;;;;;;;3.28;1.02;;;8.60;99.90;;;;;;12595603;28;20037;-86
2022/12/28 14:57:14;;;;;;;2.83;1.10;;;8.50;99.90;;;;;;12585159;28;20691;-86
2022/12/28 15:03:27;;;;;;;4.32;1.35;;;8.30;99.90;;;;;;12597183;28;20051;-85
2022/12/28 15:09:29;;;;;;;3.90;1.17;;;8.30;99.90;;;;;;12591371;28;20056;-85
2022/12/28 15:15:31;;;;;;;5.72;1.40;;;8.20;99.90;;;;;;12593856;28;20121;-86
2022/12/28 15:21:33;;;;;;;3.80;1.10;;;8.10;99.90;;;;;;12572603;28;20037;-85
2022/12/28 15:27:35;;;;;;;2.00;0.88;;;8.10;99.90;;;;;;12589332;28;20056;-85
2022/12/28 15:33:37;;;;;;;4.13;1.00;;;8.10;99.90;;;;;;12563650;28;20056;-85
2022/12/28 15:39:39;;;;;;;4.95;1.10;;;8.00;99.90;;;;;;12573459;28;20043;-85
2022/12/28 15:45:41;;;;;;;5.97;1.65;;;8.10;99.90;;;;;;12573960;28;20045;-85
2022/12/28 15:51:44;;;;;;;2.90;1.10;;;8.10;99.90;;;;;;12592028;28;20079;-85
2022/12/28 15:57:46;;;;;;;4.28;1.15;;;8.00;99.90;;;;;;12576499;28;20489;-85
2022/12/28 16:03:49;;;;;;;2.97;0.90;;;8.00;99.90;;;;;;12571983;28;20033;-84
2022/12/28 16:09:50;;;;;;;3.42;0.90;;;8.00;99.90;;;;;;12588718;28;20408;-84
2022/12/28 16:15:52;;;;;;;2.92;1.00;;;8.00;99.90;;;;;;12594865;28;20060;-84
2022/12/28 16:21:54;;;;;;;2.70;0.90;;;8.10;99.90;;;;;;12596151;28;20105;-84
2022/12/28 16:27:56;;;;;;;2.10;1.08;;;8.10;99.90;;;;;;12579541;28;20051;-84
2022/12/28 16:34:03;;;;;;;4.65;0.85;;;8.20;99.90;;;;;;12592069;28;20132;-84
2022/12/28 16:40:06;;;;;;;3.83;0.85;;;8.20;99.90;;;;;;12591444;28;20477;-85
2022/12/28 16:46:08;;;;;;;2.25;1.08;;;8.20;99.90;;;;;;12602888;28;20141;-85
2022/12/28 16:52:10;;;;;;;5.32;0.90;;;8.20;99.90;;;;;;12641933;28;20017;-86
2022/12/28 16:58:14;;;;;;;3.53;0.93;;;8.20;99.90;;;;;;12637263;28;20130;-86
2022/12/28 17:04:17;;;;;;;2.83;1.00;;;8.30;99.90;;;;;;12628830;28;20044;-85
2022/12/28 17:10:19;;;;;;;2.85;0.95;;;8.30;99.90;;;;;;12646332;28;20044;-85
2022/12/28 17:16:21;;;;;;;5.35;1.27;;;8.40;99.90;;;;;;12642594;28;20105;-86
2022/12/28 17:22:23;;;;;;;4.55;1.20;;;8.30;99.90;;;;;;12624387;28;20048;-85
2022/12/28 17:28:24;;;;;;;3.20;1.13;;;8.40;99.90;;;;;;12627395;28;20068;-85
2022/12/28 17:34:27;;;;;;;3.08;0.82;;;8.40;99.90;;;;;;12563114;28;20048;-85
2022/12/28 17:40:29;;;;;;;5.13;1.00;;;8.40;99.90;;;;;;12551016;28;20061;-85
2022/12/28 17:46:39;;;;;;;2.92;0.90;;;8.50;99.90;;;;;;12557352;28;20068;-85
2022/12/28 17:52:41;;;;;;;3.75;0.88;;;8.50;99.90;;;;;;12546993;28;20109;-85
2022/12/28 17:58:44;;;;;;;3.33;1.20;;;8.50;99.90;;;;;;12545446;28;20052;-85
2022/12/28 18:04:46;;;;;;;2.30;1.08;;;8.50;99.90;;;;;;12541558;28;20044;-83
2022/12/28 18:10:49;;;;;;;4.13;1.30;;;8.50;99.90;;;;;;12554669;28;20040;-84
2022/12/28 18:16:50;;;;;;;3.33;0.90;;;8.60;99.90;;;;;;12543475;28;20048;-84
2022/12/28 18:22:53;;;;;;;4.22;1.25;;;8.60;99.90;;;;;;12534855;28;20064;-85
2022/12/28 18:28:55;;;;;;;4.88;0.90;;;8.60;99.90;;;;;;12542822;28;20052;-84
2022/12/28 18:34:56;;;;;;;4.68;1.27;;;8.70;99.90;;;;;;12532819;28;20094;-85
2022/12/28 18:40:59;;;;;;;3.17;1.02;;;8.70;99.90;;;;;;12548712;28;20045;-85
2022/12/28 18:47:01;;;;;;;5.13;1.00;;;8.70;99.90;;;;;;12545333;28;20044;-84
2022/12/28 18:53:02;;;;;;;3.90;0.98;;;8.70;99.90;;;;;;12537929;28;20044;-85
2022/12/28 18:59:04;;;;;;;4.50;1.00;;;8.60;99.90;;;;;;12536933;28;20047;-85
2022/12/28 19:05:08;;;;;;;5.75;1.17;;;8.40;99.90;;;;;;12563353;28;20045;-85
2022/12/28 19:11:10;;;;;;;3.65;1.30;;;8.30;99.90;;;;;;12541128;28;21562;-86
2022/12/28 19:17:12;;;;;;;3.17;1.17;;;8.20;99.90;;;;;;12540392;28;20076;-85
2022/12/28 19:23:14;;;;;;;4.30;1.15;;;8.00;99.90;;;;;;12532685;28;20578;-86
2022/12/28 19:29:16;;;;;;;2.83;1.40;;;7.90;99.90;;;;;;12545972;28;20076;-85
2022/12/28 19:35:20;;;;;;;7.88;1.40;;;7.90;99.90;;;;;;12500275;28;20087;-85
2022/12/28 19:41:22;;;;;;;2.53;1.10;;;7.80;99.90;;;;;;12502347;28;20109;-85
2022/12/28 19:47:24;;;;;;;2.30;1.10;;;7.80;99.90;;;;;;12497810;28;20136;-86
2022/12/28 19:53:27;;;;;;;3.72;1.00;;;7.80;99.90;;;;;;12489539;28;20033;-86
2022/12/28 19:59:29;;;;;;;2.45;1.30;;;7.80;99.90;;;;;;12489149;28;20122;-86
2022/12/28 20:05:34;;;;;;;3.42;1.23;;;7.80;99.90;;;;;;12505054;28;20037;-85
2022/12/28 20:11:37;;;;;;;2.42;1.17;;;7.80;99.90;;;;;;12516034;28;20060;-86
2022/12/28 20:17:40;;;;;;;3.05;1.17;;;7.70;99.90;;;;;;12496946;28;20056;-85
2022/12/28 20:23:43;;;;;;;3.92;1.75;;;7.80;99.90;;;;;;12509624;28;20127;-85
2022/12/28 20:29:46;;;;;;;4.43;1.40;;;7.70;99.90;;;;;;12495422;28;20056;-85
2022/12/28 20:36:05;;;;;;;3.33;1.50;;;7.70;99.90;;;;;;12591770;28;21006;-85
2022/12/28 20:48:31;;;;;;;3.17;1.30;;;7.70;99.90;;;;;;12593682;28;20045;-85
2022/12/28 20:54:33;;;;;;;3.78;1.50;;;7.70;99.90;;;;;;12572479;28;20040;-86
2022/12/28 21:00:37;;;;;;;3.15;1.40;;;7.70;99.90;;;;;;12569899;28;20068;-86
2022/12/28 21:06:39;;;;;;;3.07;1.30;;;7.70;99.90;;;;;;12582980;28;20051;-85
2022/12/28 21:12:41;;;;;;;3.20;1.20;;;7.70;99.90;;;;;;12579803;28;20045;-86
2022/12/28 21:18:43;;;;;;;3.55;1.00;;;7.70;99.90;;;;;;12566957;28;20049;-85
2022/12/28 21:24:45;;;;;;;2.60;1.20;;;7.70;99.90;;;;;;12577667;28;20178;-86
2022/12/28 21:30:55;;;;;;;3.78;1.23;;;7.80;99.90;;;;;;12582637;28;20047;-85
2022/12/28 21:37:32;;;;;;;2.60;1.30;;;7.80;99.90;;;;;;12566124;28;20052;-86
2022/12/28 21:43:18;;;;;;;2.80;1.27;;;7.80;99.90;;;;;;12586577;28;20041;-85
2022/12/28 21:49:20;;;;;;;2.58;1.33;;;7.90;99.90;;;;;;12582519;28;20524;-85
2022/12/28 22:14:23;;;;;;;3.38;1.73;;;8.20;99.90;;;;;;12591565;28;20044;-85
2022/12/28 22:20:27;;;;;;;3.17;1.10;;;8.40;99.90;;;;;;12582106;28;20424;-85
2022/12/28 22:26:28;;;;;;;2.50;1.20;;;8.50;99.90;;;;;;12589898;28;20052;-86
2022/12/28 22:32:30;;;;;;;2.55;1.13;;;8.50;99.90;;;;;;12557764;28;20446;-85
2022/12/28 22:38:32;;;;;;;3.03;1.17;;;8.60;99.90;;;;;;12562591;28;20048;-86
2022/12/28 22:44:35;;;;;;;1.70;0.90;;;8.80;99.90;;;;;;12589937;28;20044;-85
2022/12/28 22:50:37;;;;;;;1.77;1.02;;;8.80;99.90;;;;;;12582312;28;20083;-86
2022/12/28 22:56:44;;;;;;;3.05;1.10;;;8.80;99.90;;;;;;12564651;28;20053;-85
2022/12/28 23:02:46;;;;;;;2.58;0.90;;;8.90;99.90;;;;;;12565370;28;20085;-85
2022/12/28 23:08:48;;;;;;;2.70;1.10;;;9.00;99.90;;;;;;12582201;28;20501;-86
2022/12/28 23:27:43;;;;;;;2.20;1.00;;;9.20;99.90;;;;;;12589921;28;20458;-86
2022/12/28 23:33:45;;;;;;;2.47;0.90;;;9.20;99.90;;;;;;12590993;28;20088;-86
2022/12/28 23:39:46;;;;;;;2.08;1.00;;;9.30;99.90;;;;;;12576455;28;20047;-85
2022/12/28 23:45:48;;;;;;;1.45;0.80;;;9.30;99.90;;;;;;12593137;28;20045;-85
2022/12/28 23:51:50;;;;;;;1.98;1.08;;;9.40;99.90;;;;;;12591305;28;20036;-85
2022/12/28 23:57:52;;;;;;;2.08;0.85;;;9.40;99.90;;;;;;12575136;28;20503;-86
